Hauptseite
METAR-TAF:

METAR-TAF

Flughäfen :

Schleswig-Jagel, Deutschland

Fliegerhorst Schleswig

Breite: 54-28N, Länge: 009-31E, Höhe: 22 m

Beobachtung

Neuester Wetterbericht von vor 59 Minuten, um 19:20 UTC
Wind 8 kt aus Südwest
Temperatur 2°C
Luftfeuchtigkeit 93%
Luftdruck 1026 hPa
Sichtweite: 6000 m

METAR: ETNS 181920Z AUTO 22008KT 6000 // ////// 02/01 Q1026 ///

Zeit: 21:19 (20:19 UTC)

Prognose

Neuester Wetterbericht von vor 6 Stunden und 9 Minuten, um 14:10 UTC
Gültige Prognose vom 18 um 15 UTC bis 18 um 24 UTC
Wind 5 kt aus Süd/Südwest
Sichtweite: 5000 m
Durchbrochene Bewölkung in der Höhe von 1200 ft
feuchter Dunst
Zeitweise
vom 18 um 15 UTC bis 18 um 24 UTC
Wind 8 kt aus Südwest
Sichtweite: 1600 m
Durchbrochene Bewölkung in der Höhe von 500 ft
feuchter Dunst

TAF: ETNS 181410Z 1815/1824 20005KT 5000 BR BKN012 TEMPO 1815/1824 23008KT 3000 BR BKN005 CANCEL 1600 BY ETGL

Wetterbeobachtungen und Prognosen von mehr als 4000 Flughäfen (METAR und TAF Bericht).

Die verfügbaren Stationen werden durch gelbe und rote Markierungen auf der Karte dargestellt.

Führen Sie die Maus auf sie, um den Namen der Station zu sehen.

Darauf klicken, um die Beobachtung von Wetterbeobachtungen und Prognosen zu sehen.

Um die Karte zu ändern : klicken Sie auf den grünen Tasten mit einem schwarzen Kreuz Zum Vergrößern, auf den grünen Button mit einem Gedankenstrich zu verkleinern, oder auf die grünen Pfeile für benachbarte Karten.


METAR-TAF: